sensor_id;sensor_type;location;lat;lon;timestamp;P1;durP1;ratioP1;P2;durP2;ratioP2
33453;SDS011;39400;49.744;7.012;2023-08-06T00:02:15;5.93;;;3.40;;
33453;SDS011;39400;49.744;7.012;2023-08-06T00:04:41;6.07;;;4.57;;
33453;SDS011;39400;49.744;7.012;2023-08-06T00:07:06;7.13;;;4.65;;
33453;SDS011;39400;49.744;7.012;2023-08-06T00:09:31;5.88;;;4.10;;
33453;SDS011;39400;49.744;7.012;2023-08-06T00:11:56;6.10;;;3.38;;
33453;SDS011;39400;49.744;7.012;2023-08-06T00:14:22;5.63;;;2.88;;
33453;SDS011;39400;49.744;7.012;2023-08-06T00:16:47;6.18;;;3.05;;
33453;SDS011;39400;49.744;7.012;2023-08-06T00:19:12;4.85;;;2.88;;
33453;SDS011;39400;49.744;7.012;2023-08-06T00:21:38;5.38;;;2.72;;
33453;SDS011;39400;49.744;7.012;2023-08-06T00:24:03;7.45;;;2.67;;
33453;SDS011;39400;49.744;7.012;2023-08-06T00:26:28;3.92;;;2.92;;
33453;SDS011;39400;49.744;7.012;2023-08-06T00:28:54;5.80;;;2.75;;
33453;SDS011;39400;49.744;7.012;2023-08-06T00:31:19;5.57;;;3.10;;
33453;SDS011;39400;49.744;7.012;2023-08-06T00:33:44;6.93;;;2.50;;
33453;SDS011;39400;49.744;7.012;2023-08-06T00:36:10;6.53;;;2.70;;
33453;SDS011;39400;49.744;7.012;2023-08-06T00:38:35;7.15;;;2.90;;
33453;SDS011;39400;49.744;7.012;2023-08-06T00:41:00;5.53;;;2.17;;
33453;SDS011;39400;49.744;7.012;2023-08-06T00:43:26;6.32;;;2.17;;
33453;SDS011;39400;49.744;7.012;2023-08-06T00:45:51;6.65;;;2.45;;
33453;SDS011;39400;49.744;7.012;2023-08-06T00:48:17;5.50;;;2.08;;
33453;SDS011;39400;49.744;7.012;2023-08-06T00:50:42;6.88;;;2.85;;
33453;SDS011;39400;49.744;7.012;2023-08-06T00:53:08;9.18;;;2.55;;
33453;SDS011;39400;49.744;7.012;2023-08-06T00:55:33;11.43;;;2.90;;
33453;SDS011;39400;49.744;7.012;2023-08-06T00:57:59;5.93;;;1.92;;
33453;SDS011;39400;49.744;7.012;2023-08-06T01:00:26;5.70;;;2.67;;
33453;SDS011;39400;49.744;7.012;2023-08-06T01:02:52;4.43;;;1.58;;
33453;SDS011;39400;49.744;7.012;2023-08-06T01:05:18;8.73;;;2.03;;
33453;SDS011;39400;49.744;7.012;2023-08-06T01:11:14;5.78;;;2.08;;
33453;SDS011;39400;49.744;7.012;2023-08-06T01:13:51;8.57;;;2.22;;
33453;SDS011;39400;49.744;7.012;2023-08-06T01:16:23;8.27;;;2.38;;
33453;SDS011;39400;49.744;7.012;2023-08-06T01:18:49;8.38;;;2.00;;
33453;SDS011;39400;49.744;7.012;2023-08-06T01:21:15;6.47;;;2.13;;
33453;SDS011;39400;49.744;7.012;2023-08-06T01:23:41;5.45;;;1.83;;
33453;SDS011;39400;49.744;7.012;2023-08-06T01:29:05;5.13;;;2.22;;
33453;SDS011;39400;49.744;7.012;2023-08-06T01:31:36;9.80;;;2.05;;
33453;SDS011;39400;49.744;7.012;2023-08-06T01:34:13;7.72;;;1.83;;
33453;SDS011;39400;49.744;7.012;2023-08-06T01:36:43;5.93;;;2.40;;
33453;SDS011;39400;49.744;7.012;2023-08-06T01:39:09;8.02;;;2.25;;
33453;SDS011;39400;49.744;7.012;2023-08-06T01:41:34;4.40;;;1.60;;
33453;SDS011;39400;49.744;7.012;2023-08-06T01:43:59;6.40;;;1.58;;
33453;SDS011;39400;49.744;7.012;2023-08-06T01:46:25;5.68;;;1.00;;
33453;SDS011;39400;49.744;7.012;2023-08-06T01:48:50;8.48;;;1.55;;
33453;SDS011;39400;49.744;7.012;2023-08-06T01:51:15;4.78;;;1.50;;
33453;SDS011;39400;49.744;7.012;2023-08-06T01:53:41;4.50;;;1.15;;
33453;SDS011;39400;49.744;7.012;2023-08-06T01:56:06;5.00;;;1.08;;
33453;SDS011;39400;49.744;7.012;2023-08-06T01:58:31;5.50;;;1.00;;
33453;SDS011;39400;49.744;7.012;2023-08-06T02:00:57;1.60;;;0.90;;
33453;SDS011;39400;49.744;7.012;2023-08-06T02:03:23;3.50;;;1.15;;
33453;SDS011;39400;49.744;7.012;2023-08-06T02:05:48;3.35;;;0.93;;
33453;SDS011;39400;49.744;7.012;2023-08-06T02:08:13;5.32;;;1.67;;
33453;SDS011;39400;49.744;7.012;2023-08-06T02:10:39;1.70;;;0.80;;
33453;SDS011;39400;49.744;7.012;2023-08-06T02:13:06;2.97;;;1.10;;
33453;SDS011;39400;49.744;7.012;2023-08-06T02:15:31;6.00;;;0.85;;
33453;SDS011;39400;49.744;7.012;2023-08-06T02:17:57;1.02;;;0.65;;
33453;SDS011;39400;49.744;7.012;2023-08-06T02:20:23;2.22;;;0.60;;
33453;SDS011;39400;49.744;7.012;2023-08-06T02:22:48;1.80;;;0.60;;
33453;SDS011;39400;49.744;7.012;2023-08-06T02:25:13;1.63;;;0.57;;
33453;SDS011;39400;49.744;7.012;2023-08-06T02:27:39;1.88;;;0.40;;
33453;SDS011;39400;49.744;7.012;2023-08-06T02:30:05;0.77;;;0.60;;
33453;SDS011;39400;49.744;7.012;2023-08-06T02:32:31;1.25;;;0.40;;
33453;SDS011;39400;49.744;7.012;2023-08-06T02:34:56;1.65;;;0.85;;
33453;SDS011;39400;49.744;7.012;2023-08-06T02:37:21;1.42;;;0.40;;
33453;SDS011;39400;49.744;7.012;2023-08-06T02:39:47;0.25;;;0.25;;
33453;SDS011;39400;49.744;7.012;2023-08-06T02:42:12;0.85;;;0.52;;
33453;SDS011;39400;49.744;7.012;2023-08-06T02:44:38;0.60;;;0.25;;
33453;SDS011;39400;49.744;7.012;2023-08-06T02:47:04;0.63;;;0.30;;
33453;SDS011;39400;49.744;7.012;2023-08-06T02:49:29;2.72;;;0.20;;
33453;SDS011;39400;49.744;7.012;2023-08-06T02:51:55;2.20;;;0.30;;
33453;SDS011;39400;49.744;7.012;2023-08-06T02:54:20;1.55;;;0.30;;
33453;SDS011;39400;49.744;7.012;2023-08-06T02:56:45;0.20;;;0.20;;
33453;SDS011;39400;49.744;7.012;2023-08-06T02:59:17;1.05;;;0.32;;
33453;SDS011;39400;49.744;7.012;2023-08-06T03:02:02;0.35;;;0.35;;
33453;SDS011;39400;49.744;7.012;2023-08-06T03:04:38;1.00;;;0.38;;
33453;SDS011;39400;49.744;7.012;2023-08-06T03:07:04;1.80;;;0.30;;
33453;SDS011;39400;49.744;7.012;2023-08-06T03:09:38;2.70;;;0.47;;
33453;SDS011;39400;49.744;7.012;2023-08-06T03:12:04;0.65;;;0.40;;
33453;SDS011;39400;49.744;7.012;2023-08-06T03:14:30;1.17;;;0.40;;
33453;SDS011;39400;49.744;7.012;2023-08-06T03:16:57;0.68;;;0.68;;
33453;SDS011;39400;49.744;7.012;2023-08-06T03:19:23;0.30;;;0.30;;
33453;SDS011;39400;49.744;7.012;2023-08-06T03:21:48;1.73;;;0.50;;
33453;SDS011;39400;49.744;7.012;2023-08-06T03:24:14;5.72;;;0.50;;
33453;SDS011;39400;49.744;7.012;2023-08-06T03:26:40;1.02;;;0.40;;
33453;SDS011;39400;49.744;7.012;2023-08-06T03:29:06;3.08;;;0.30;;
33453;SDS011;39400;49.744;7.012;2023-08-06T03:31:33;0.43;;;0.22;;
33453;SDS011;39400;49.744;7.012;2023-08-06T03:33:59;1.25;;;0.35;;
33453;SDS011;39400;49.744;7.012;2023-08-06T03:36:26;0.93;;;0.43;;
33453;SDS011;39400;49.744;7.012;2023-08-06T03:38:52;0.95;;;0.30;;
33453;SDS011;39400;49.744;7.012;2023-08-06T03:41:17;0.73;;;0.30;;
33453;SDS011;39400;49.744;7.012;2023-08-06T03:43:43;0.30;;;0.30;;
33453;SDS011;39400;49.744;7.012;2023-08-06T03:46:14;2.05;;;0.30;;
33453;SDS011;39400;49.744;7.012;2023-08-06T03:48:40;2.08;;;0.40;;
33453;SDS011;39400;49.744;7.012;2023-08-06T03:51:05;1.73;;;0.32;;
33453;SDS011;39400;49.744;7.012;2023-08-06T03:53:30;0.30;;;0.30;;
33453;SDS011;39400;49.744;7.012;2023-08-06T03:55:57;1.40;;;0.25;;
33453;SDS011;39400;49.744;7.012;2023-08-06T03:58:22;2.08;;;0.20;;
33453;SDS011;39400;49.744;7.012;2023-08-06T04:00:47;0.70;;;0.20;;
33453;SDS011;39400;49.744;7.012;2023-08-06T04:03:13;0.70;;;0.30;;
33453;SDS011;39400;49.744;7.012;2023-08-06T04:05:39;1.02;;;0.30;;
33453;SDS011;39400;49.744;7.012;2023-08-06T04:08:04;1.40;;;0.40;;
33453;SDS011;39400;49.744;7.012;2023-08-06T04:10:29;0.73;;;0.40;;
33453;SDS011;39400;49.744;7.012;2023-08-06T04:12:55;0.63;;;0.30;;
33453;SDS011;39400;49.744;7.012;2023-08-06T04:15:20;1.00;;;0.20;;
33453;SDS011;39400;49.744;7.012;2023-08-06T04:17:45;0.40;;;0.40;;
33453;SDS011;39400;49.744;7.012;2023-08-06T04:20:11;0.93;;;0.40;;
33453;SDS011;39400;49.744;7.012;2023-08-06T04:22:36;2.88;;;0.43;;
33453;SDS011;39400;49.744;7.012;2023-08-06T04:25:03;0.90;;;0.30;;
33453;SDS011;39400;49.744;7.012;2023-08-06T04:27:28;0.82;;;0.40;;
33453;SDS011;39400;49.744;7.012;2023-08-06T04:29:54;2.92;;;0.50;;
33453;SDS011;39400;49.744;7.012;2023-08-06T04:32:19;0.50;;;0.40;;
33453;SDS011;39400;49.744;7.012;2023-08-06T04:34:48;0.25;;;0.22;;
33453;SDS011;39400;49.744;7.012;2023-08-06T04:37:15;0.43;;;0.30;;
33453;SDS011;39400;49.744;7.012;2023-08-06T04:39:40;1.45;;;0.30;;
33453;SDS011;39400;49.744;7.012;2023-08-06T04:42:06;1.73;;;0.38;;
33453;SDS011;39400;49.744;7.012;2023-08-06T04:44:31;0.85;;;0.43;;
33453;SDS011;39400;49.744;7.012;2023-08-06T04:46:56;1.85;;;0.40;;
33453;SDS011;39400;49.744;7.012;2023-08-06T04:49:22;0.50;;;0.47;;
33453;SDS011;39400;49.744;7.012;2023-08-06T04:51:47;0.52;;;0.40;;
33453;SDS011;39400;49.744;7.012;2023-08-06T04:54:13;0.70;;;0.52;;
33453;SDS011;39400;49.744;7.012;2023-08-06T04:56:39;1.67;;;0.55;;
33453;SDS011;39400;49.744;7.012;2023-08-06T04:59:04;0.88;;;0.50;;
33453;SDS011;39400;49.744;7.012;2023-08-06T05:01:29;0.80;;;0.60;;
33453;SDS011;39400;49.744;7.012;2023-08-06T05:03:54;1.20;;;0.50;;
33453;SDS011;39400;49.744;7.012;2023-08-06T05:06:20;1.73;;;0.60;;
33453;SDS011;39400;49.744;7.012;2023-08-06T05:08:45;0.98;;;0.50;;
33453;SDS011;39400;49.744;7.012;2023-08-06T05:11:10;2.90;;;0.63;;
33453;SDS011;39400;49.744;7.012;2023-08-06T05:13:36;1.38;;;0.70;;
33453;SDS011;39400;49.744;7.012;2023-08-06T05:16:01;0.75;;;0.40;;
33453;SDS011;39400;49.744;7.012;2023-08-06T05:18:26;1.27;;;0.60;;
33453;SDS011;39400;49.744;7.012;2023-08-06T05:20:52;0.73;;;0.47;;
33453;SDS011;39400;49.744;7.012;2023-08-06T05:23:17;1.08;;;0.60;;
33453;SDS011;39400;49.744;7.012;2023-08-06T05:25:42;1.55;;;0.80;;
33453;SDS011;39400;49.744;7.012;2023-08-06T05:28:08;2.05;;;0.70;;
33453;SDS011;39400;49.744;7.012;2023-08-06T05:30:33;0.93;;;0.50;;
33453;SDS011;39400;49.744;7.012;2023-08-06T05:32:58;1.30;;;0.90;;
33453;SDS011;39400;49.744;7.012;2023-08-06T05:35:24;3.13;;;0.88;;
33453;SDS011;39400;49.744;7.012;2023-08-06T05:37:52;1.45;;;0.55;;
33453;SDS011;39400;49.744;7.012;2023-08-06T05:40:18;1.33;;;0.80;;
33453;SDS011;39400;49.744;7.012;2023-08-06T05:42:43;3.03;;;0.85;;
33453;SDS011;39400;49.744;7.012;2023-08-06T05:45:08;0.82;;;0.70;;
33453;SDS011;39400;49.744;7.012;2023-08-06T05:47:34;1.83;;;0.80;;
33453;SDS011;39400;49.744;7.012;2023-08-06T05:49:59;3.05;;;0.75;;
33453;SDS011;39400;49.744;7.012;2023-08-06T05:52:25;1.27;;;0.88;;
33453;SDS011;39400;49.744;7.012;2023-08-06T05:54:50;2.25;;;0.80;;
33453;SDS011;39400;49.744;7.012;2023-08-06T05:57:16;1.73;;;0.70;;
33453;SDS011;39400;49.744;7.012;2023-08-06T05:59:41;1.98;;;0.95;;
33453;SDS011;39400;49.744;7.012;2023-08-06T06:02:07;1.95;;;0.90;;
33453;SDS011;39400;49.744;7.012;2023-08-06T06:04:51;2.60;;;1.13;;
33453;SDS011;39400;49.744;7.012;2023-08-06T06:07:35;4.30;;;1.10;;
33453;SDS011;39400;49.744;7.012;2023-08-06T06:10:00;6.95;;;1.10;;
33453;SDS011;39400;49.744;7.012;2023-08-06T06:12:26;3.50;;;1.40;;
33453;SDS011;39400;49.744;7.012;2023-08-06T06:14:51;2.33;;;0.75;;
33453;SDS011;39400;49.744;7.012;2023-08-06T06:17:17;0.68;;;0.68;;
33453;SDS011;39400;49.744;7.012;2023-08-06T06:19:42;1.00;;;0.90;;
33453;SDS011;39400;49.744;7.012;2023-08-06T06:22:07;1.10;;;0.75;;
33453;SDS011;39400;49.744;7.012;2023-08-06T06:24:33;0.85;;;0.57;;
33453;SDS011;39400;49.744;7.012;2023-08-06T06:26:58;1.25;;;0.65;;
33453;SDS011;39400;49.744;7.012;2023-08-06T06:29:24;0.73;;;0.63;;
33453;SDS011;39400;49.744;7.012;2023-08-06T06:31:49;0.50;;;0.50;;
33453;SDS011;39400;49.744;7.012;2023-08-06T06:34:14;0.73;;;0.70;;
33453;SDS011;39400;49.744;7.012;2023-08-06T06:36:39;1.45;;;0.88;;
33453;SDS011;39400;49.744;7.012;2023-08-06T06:39:05;2.55;;;0.95;;
33453;SDS011;39400;49.744;7.012;2023-08-06T06:41:30;3.45;;;0.90;;
33453;SDS011;39400;49.744;7.012;2023-08-06T06:47:30;2.10;;;0.63;;
33453;SDS011;39400;49.744;7.012;2023-08-06T06:53:24;1.05;;;0.70;;
33453;SDS011;39400;49.744;7.012;2023-08-06T06:55:49;2.15;;;0.90;;
33453;SDS011;39400;49.744;7.012;2023-08-06T06:58:16;1.25;;;0.60;;
33453;SDS011;39400;49.744;7.012;2023-08-06T07:00:41;0.60;;;0.60;;
33453;SDS011;39400;49.744;7.012;2023-08-06T07:03:07;2.22;;;0.90;;
33453;SDS011;39400;49.744;7.012;2023-08-06T07:05:32;2.25;;;0.80;;
33453;SDS011;39400;49.744;7.012;2023-08-06T07:07:58;3.25;;;0.80;;
33453;SDS011;39400;49.744;7.012;2023-08-06T07:10:23;0.88;;;0.70;;
33453;SDS011;39400;49.744;7.012;2023-08-06T07:12:48;0.93;;;0.68;;
33453;SDS011;39400;49.744;7.012;2023-08-06T07:15:14;1.00;;;0.70;;
33453;SDS011;39400;49.744;7.012;2023-08-06T07:17:39;1.85;;;0.93;;
33453;SDS011;39400;49.744;7.012;2023-08-06T07:20:04;0.40;;;0.40;;
33453;SDS011;39400;49.744;7.012;2023-08-06T07:22:30;3.22;;;0.50;;
33453;SDS011;39400;49.744;7.012;2023-08-06T07:24:56;2.35;;;0.50;;
33453;SDS011;39400;49.744;7.012;2023-08-06T07:27:21;0.40;;;0.40;;
33453;SDS011;39400;49.744;7.012;2023-08-06T07:29:46;1.95;;;0.88;;
33453;SDS011;39400;49.744;7.012;2023-08-06T07:32:12;0.90;;;0.75;;
33453;SDS011;39400;49.744;7.012;2023-08-06T07:34:37;3.38;;;1.25;;
33453;SDS011;39400;49.744;7.012;2023-08-06T07:37:02;4.00;;;1.70;;
33453;SDS011;39400;49.744;7.012;2023-08-06T07:39:28;2.22;;;1.38;;
33453;SDS011;39400;49.744;7.012;2023-08-06T07:41:53;2.67;;;1.33;;
33453;SDS011;39400;49.744;7.012;2023-08-06T07:44:18;3.53;;;2.13;;
33453;SDS011;39400;49.744;7.012;2023-08-06T07:46:43;2.13;;;1.52;;
33453;SDS011;39400;49.744;7.012;2023-08-06T07:49:09;1.10;;;1.00;;
33453;SDS011;39400;49.744;7.012;2023-08-06T07:51:34;4.53;;;0.65;;
33453;SDS011;39400;49.744;7.012;2023-08-06T07:53:59;1.42;;;0.70;;
33453;SDS011;39400;49.744;7.012;2023-08-06T07:56:25;0.60;;;0.57;;
33453;SDS011;39400;49.744;7.012;2023-08-06T07:58:50;2.70;;;0.63;;
33453;SDS011;39400;49.744;7.012;2023-08-06T08:01:15;1.00;;;0.50;;
33453;SDS011;39400;49.744;7.012;2023-08-06T08:03:41;1.05;;;0.60;;
33453;SDS011;39400;49.744;7.012;2023-08-06T08:06:06;0.40;;;0.40;;
33453;SDS011;39400;49.744;7.012;2023-08-06T08:08:31;0.63;;;0.40;;
33453;SDS011;39400;49.744;7.012;2023-08-06T08:10:57;0.38;;;0.38;;
33453;SDS011;39400;49.744;7.012;2023-08-06T08:13:22;0.40;;;0.40;;
33453;SDS011;39400;49.744;7.012;2023-08-06T08:15:47;0.40;;;0.40;;
33453;SDS011;39400;49.744;7.012;2023-08-06T08:18:13;2.05;;;1.17;;
33453;SDS011;39400;49.744;7.012;2023-08-06T08:20:38;0.88;;;0.50;;
33453;SDS011;39400;49.744;7.012;2023-08-06T08:23:03;0.73;;;0.60;;
33453;SDS011;39400;49.744;7.012;2023-08-06T08:25:28;1.15;;;0.68;;
33453;SDS011;39400;49.744;7.012;2023-08-06T08:27:54;1.10;;;0.50;;
33453;SDS011;39400;49.744;7.012;2023-08-06T08:30:20;3.17;;;0.77;;
33453;SDS011;39400;49.744;7.012;2023-08-06T08:32:46;1.00;;;0.40;;
33453;SDS011;39400;49.744;7.012;2023-08-06T08:35:11;0.52;;;0.50;;
33453;SDS011;39400;49.744;7.012;2023-08-06T08:37:37;0.73;;;0.63;;
33453;SDS011;39400;49.744;7.012;2023-08-06T08:40:02;0.70;;;0.50;;
33453;SDS011;39400;49.744;7.012;2023-08-06T08:42:28;1.08;;;0.60;;
33453;SDS011;39400;49.744;7.012;2023-08-06T08:44:53;3.80;;;0.70;;
33453;SDS011;39400;49.744;7.012;2023-08-06T08:47:20;1.13;;;1.02;;
33453;SDS011;39400;49.744;7.012;2023-08-06T08:49:45;1.45;;;1.35;;
33453;SDS011;39400;49.744;7.012;2023-08-06T08:52:13;2.40;;;1.40;;
33453;SDS011;39400;49.744;7.012;2023-08-06T08:54:40;4.13;;;2.55;;
33453;SDS011;39400;49.744;7.012;2023-08-06T08:57:06;5.13;;;2.95;;
33453;SDS011;39400;49.744;7.012;2023-08-06T08:59:33;9.52;;;5.53;;
33453;SDS011;39400;49.744;7.012;2023-08-06T09:01:58;7.80;;;4.35;;
33453;SDS011;39400;49.744;7.012;2023-08-06T09:04:26;5.63;;;2.83;;
33453;SDS011;39400;49.744;7.012;2023-08-06T09:06:54;5.27;;;2.53;;
33453;SDS011;39400;49.744;7.012;2023-08-06T09:12:12;17.13;;;9.73;;
33453;SDS011;39400;49.744;7.012;2023-08-06T09:14:39;2.45;;;1.95;;
33453;SDS011;39400;49.744;7.012;2023-08-06T09:17:05;2.60;;;1.10;;
33453;SDS011;39400;49.744;7.012;2023-08-06T09:19:30;1.42;;;1.10;;
33453;SDS011;39400;49.744;7.012;2023-08-06T09:21:55;1.13;;;0.80;;
33453;SDS011;39400;49.744;7.012;2023-08-06T09:24:21;0.98;;;0.90;;
33453;SDS011;39400;49.744;7.012;2023-08-06T09:26:46;1.00;;;0.98;;
33453;SDS011;39400;49.744;7.012;2023-08-06T09:29:12;1.50;;;1.13;;
33453;SDS011;39400;49.744;7.012;2023-08-06T09:31:43;3.05;;;1.48;;
33453;SDS011;39400;49.744;7.012;2023-08-06T09:34:20;6.28;;;1.35;;
33453;SDS011;39400;49.744;7.012;2023-08-06T09:36:47;1.27;;;0.60;;
33453;SDS011;39400;49.744;7.012;2023-08-06T09:39:15;0.98;;;0.77;;
33453;SDS011;39400;49.744;7.012;2023-08-06T09:41:41;1.58;;;1.25;;
33453;SDS011;39400;49.744;7.012;2023-08-06T09:44:16;0.95;;;0.73;;
33453;SDS011;39400;49.744;7.012;2023-08-06T09:46:47;0.75;;;0.75;;
33453;SDS011;39400;49.744;7.012;2023-08-06T09:49:17;1.98;;;1.13;;
33453;SDS011;39400;49.744;7.012;2023-08-06T09:51:44;1.38;;;0.90;;
33453;SDS011;39400;49.744;7.012;2023-08-06T09:54:11;1.23;;;1.00;;
33453;SDS011;39400;49.744;7.012;2023-08-06T09:56:37;1.52;;;0.70;;
33453;SDS011;39400;49.744;7.012;2023-08-06T09:59:06;2.05;;;1.13;;
33453;SDS011;39400;49.744;7.012;2023-08-06T10:01:33;1.08;;;0.90;;
33453;SDS011;39400;49.744;7.012;2023-08-06T10:03:59;1.65;;;1.23;;
33453;SDS011;39400;49.744;7.012;2023-08-06T10:06:26;2.17;;;1.10;;
33453;SDS011;39400;49.744;7.012;2023-08-06T10:08:53;2.15;;;1.13;;
33453;SDS011;39400;49.744;7.012;2023-08-06T10:11:18;2.70;;;1.08;;
33453;SDS011;39400;49.744;7.012;2023-08-06T10:13:47;2.75;;;1.17;;
33453;SDS011;39400;49.744;7.012;2023-08-06T10:16:13;1.52;;;1.00;;
33453;SDS011;39400;49.744;7.012;2023-08-06T10:18:39;2.20;;;1.38;;
33453;SDS011;39400;49.744;7.012;2023-08-06T10:21:08;2.88;;;1.17;;
33453;SDS011;39400;49.744;7.012;2023-08-06T10:23:35;3.03;;;1.90;;
33453;SDS011;39400;49.744;7.012;2023-08-06T10:26:01;3.53;;;1.85;;
33453;SDS011;39400;49.744;7.012;2023-08-06T10:28:33;6.43;;;5.22;;
33453;SDS011;39400;49.744;7.012;2023-08-06T10:31:03;8.30;;;4.45;;
33453;SDS011;39400;49.744;7.012;2023-08-06T10:33:44;12.52;;;5.40;;
33453;SDS011;39400;49.744;7.012;2023-08-06T10:36:11;11.27;;;7.00;;
33453;SDS011;39400;49.744;7.012;2023-08-06T10:38:49;17.70;;;9.73;;
33453;SDS011;39400;49.744;7.012;2023-08-06T10:41:27;6.32;;;3.88;;
33453;SDS011;39400;49.744;7.012;2023-08-06T10:44:06;9.00;;;1.60;;
33453;SDS011;39400;49.744;7.012;2023-08-06T10:46:33;4.27;;;2.30;;
33453;SDS011;39400;49.744;7.012;2023-08-06T10:49:17;6.90;;;3.47;;
33453;SDS011;39400;49.744;7.012;2023-08-06T10:51:43;5.35;;;2.67;;
33453;SDS011;39400;49.744;7.012;2023-08-06T10:54:08;3.40;;;1.75;;
33453;SDS011;39400;49.744;7.012;2023-08-06T10:56:39;4.60;;;2.65;;
33453;SDS011;39400;49.744;7.012;2023-08-06T10:59:05;7.22;;;3.67;;
33453;SDS011;39400;49.744;7.012;2023-08-06T11:01:33;9.85;;;6.05;;
33453;SDS011;39400;49.744;7.012;2023-08-06T11:04:01;6.72;;;3.53;;
33453;SDS011;39400;49.744;7.012;2023-08-06T11:06:33;5.50;;;2.30;;
33453;SDS011;39400;49.744;7.012;2023-08-06T11:08:58;6.30;;;3.33;;
33453;SDS011;39400;49.744;7.012;2023-08-06T11:11:42;4.15;;;2.60;;
33453;SDS011;39400;49.744;7.012;2023-08-06T11:14:30;3.03;;;1.40;;
33453;SDS011;39400;49.744;7.012;2023-08-06T11:16:55;4.70;;;2.25;;
33453;SDS011;39400;49.744;7.012;2023-08-06T11:19:21;6.85;;;1.60;;
33453;SDS011;39400;49.744;7.012;2023-08-06T11:21:47;3.35;;;1.70;;
33453;SDS011;39400;49.744;7.012;2023-08-06T11:24:13;3.05;;;1.30;;
33453;SDS011;39400;49.744;7.012;2023-08-06T11:26:38;2.75;;;1.30;;
33453;SDS011;39400;49.744;7.012;2023-08-06T11:29:04;2.80;;;1.30;;
33453;SDS011;39400;49.744;7.012;2023-08-06T11:31:29;5.63;;;1.75;;
33453;SDS011;39400;49.744;7.012;2023-08-06T11:33:54;2.35;;;1.13;;
33453;SDS011;39400;49.744;7.012;2023-08-06T11:36:33;2.42;;;1.48;;
33453;SDS011;39400;49.744;7.012;2023-08-06T11:39:00;1.85;;;0.85;;
33453;SDS011;39400;49.744;7.012;2023-08-06T11:41:27;1.73;;;0.63;;
33453;SDS011;39400;49.744;7.012;2023-08-06T11:43:53;7.25;;;1.20;;
33453;SDS011;39400;49.744;7.012;2023-08-06T11:46:19;4.65;;;1.33;;
33453;SDS011;39400;49.744;7.012;2023-08-06T11:48:54;5.57;;;1.17;;
33453;SDS011;39400;49.744;7.012;2023-08-06T11:51:23;4.25;;;1.38;;
33453;SDS011;39400;49.744;7.012;2023-08-06T11:53:49;1.83;;;0.80;;
33453;SDS011;39400;49.744;7.012;2023-08-06T11:56:15;1.73;;;1.05;;
33453;SDS011;39400;49.744;7.012;2023-08-06T11:58:41;5.30;;;1.92;;
33453;SDS011;39400;49.744;7.012;2023-08-06T12:01:07;2.83;;;1.63;;
33453;SDS011;39400;49.744;7.012;2023-08-06T12:03:32;2.30;;;1.20;;
33453;SDS011;39400;49.744;7.012;2023-08-06T12:05:57;6.35;;;1.45;;
33453;SDS011;39400;49.744;7.012;2023-08-06T12:08:26;1.50;;;0.98;;
33453;SDS011;39400;49.744;7.012;2023-08-06T12:10:51;1.60;;;0.75;;
33453;SDS011;39400;49.744;7.012;2023-08-06T12:13:17;3.40;;;1.00;;
33453;SDS011;39400;49.744;7.012;2023-08-06T12:15:42;1.65;;;0.70;;
33453;SDS011;39400;49.744;7.012;2023-08-06T12:18:07;3.72;;;1.10;;
33453;SDS011;39400;49.744;7.012;2023-08-06T12:20:33;5.32;;;2.05;;
33453;SDS011;39400;49.744;7.012;2023-08-06T12:22:58;5.55;;;1.55;;
33453;SDS011;39400;49.744;7.012;2023-08-06T12:25:23;3.67;;;1.15;;
33453;SDS011;39400;49.744;7.012;2023-08-06T12:27:48;5.95;;;1.80;;
33453;SDS011;39400;49.744;7.012;2023-08-06T12:30:14;2.63;;;1.00;;
33453;SDS011;39400;49.744;7.012;2023-08-06T12:32:39;2.15;;;1.02;;
33453;SDS011;39400;49.744;7.012;2023-08-06T12:35:05;2.42;;;1.33;;
33453;SDS011;39400;49.744;7.012;2023-08-06T12:37:31;2.13;;;0.98;;
33453;SDS011;39400;49.744;7.012;2023-08-06T12:39:56;2.53;;;0.98;;
33453;SDS011;39400;49.744;7.012;2023-08-06T12:42:21;2.25;;;1.00;;
33453;SDS011;39400;49.744;7.012;2023-08-06T12:44:50;3.85;;;1.00;;
33453;SDS011;39400;49.744;7.012;2023-08-06T12:47:16;1.25;;;1.10;;
33453;SDS011;39400;49.744;7.012;2023-08-06T12:49:41;2.95;;;0.80;;
33453;SDS011;39400;49.744;7.012;2023-08-06T12:52:06;3.38;;;1.25;;
33453;SDS011;39400;49.744;7.012;2023-08-06T12:54:32;2.08;;;0.88;;
33453;SDS011;39400;49.744;7.012;2023-08-06T12:56:57;2.08;;;1.00;;
33453;SDS011;39400;49.744;7.012;2023-08-06T12:59:22;1.65;;;1.10;;
33453;SDS011;39400;49.744;7.012;2023-08-06T13:01:48;2.17;;;0.80;;
33453;SDS011;39400;49.744;7.012;2023-08-06T13:04:13;1.60;;;1.10;;
33453;SDS011;39400;49.744;7.012;2023-08-06T13:06:39;3.75;;;1.20;;
33453;SDS011;39400;49.744;7.012;2023-08-06T13:09:04;2.92;;;0.80;;
33453;SDS011;39400;49.744;7.012;2023-08-06T13:11:30;1.42;;;0.82;;
33453;SDS011;39400;49.744;7.012;2023-08-06T13:13:56;4.00;;;1.52;;
33453;SDS011;39400;49.744;7.012;2023-08-06T13:16:24;1.75;;;0.82;;
33453;SDS011;39400;49.744;7.012;2023-08-06T13:18:49;2.63;;;0.93;;
33453;SDS011;39400;49.744;7.012;2023-08-06T13:21:14;2.97;;;1.20;;
33453;SDS011;39400;49.744;7.012;2023-08-06T13:23:40;1.80;;;0.93;;
33453;SDS011;39400;49.744;7.012;2023-08-06T13:26:05;2.47;;;0.98;;
33453;SDS011;39400;49.744;7.012;2023-08-06T13:28:30;2.33;;;1.25;;
33453;SDS011;39400;49.744;7.012;2023-08-06T13:30:56;5.65;;;2.67;;
33453;SDS011;39400;49.744;7.012;2023-08-06T13:33:21;2.25;;;0.98;;
33453;SDS011;39400;49.744;7.012;2023-08-06T13:35:46;1.60;;;0.90;;
33453;SDS011;39400;49.744;7.012;2023-08-06T13:38:11;2.55;;;0.77;;
33453;SDS011;39400;49.744;7.012;2023-08-06T13:40:37;1.75;;;0.70;;
33453;SDS011;39400;49.744;7.012;2023-08-06T13:43:02;1.08;;;0.63;;
33453;SDS011;39400;49.744;7.012;2023-08-06T13:45:43;4.28;;;0.90;;
33453;SDS011;39400;49.744;7.012;2023-08-06T13:48:08;1.52;;;0.63;;
33453;SDS011;39400;49.744;7.012;2023-08-06T13:50:34;1.77;;;0.80;;
33453;SDS011;39400;49.744;7.012;2023-08-06T13:52:59;2.08;;;0.60;;
33453;SDS011;39400;49.744;7.012;2023-08-06T13:55:24;0.98;;;0.88;;
33453;SDS011;39400;49.744;7.012;2023-08-06T13:57:49;1.55;;;0.68;;
33453;SDS011;39400;49.744;7.012;2023-08-06T14:00:15;2.05;;;1.15;;
33453;SDS011;39400;49.744;7.012;2023-08-06T14:02:41;2.95;;;1.05;;
33453;SDS011;39400;49.744;7.012;2023-08-06T14:05:06;6.38;;;2.40;;
33453;SDS011;39400;49.744;7.012;2023-08-06T14:07:32;2.25;;;0.93;;
33453;SDS011;39400;49.744;7.012;2023-08-06T14:09:57;4.00;;;1.80;;
33453;SDS011;39400;49.744;7.012;2023-08-06T14:12:22;3.67;;;1.73;;
33453;SDS011;39400;49.744;7.012;2023-08-06T14:14:48;2.88;;;0.95;;
33453;SDS011;39400;49.744;7.012;2023-08-06T14:17:13;5.20;;;1.00;;
33453;SDS011;39400;49.744;7.012;2023-08-06T14:19:38;2.33;;;1.25;;
33453;SDS011;39400;49.744;7.012;2023-08-06T14:22:04;2.35;;;1.17;;
33453;SDS011;39400;49.744;7.012;2023-08-06T14:24:29;3.97;;;0.90;;
33453;SDS011;39400;49.744;7.012;2023-08-06T14:27:00;3.05;;;1.00;;
33453;SDS011;39400;49.744;7.012;2023-08-06T14:29:26;1.75;;;1.10;;
33453;SDS011;39400;49.744;7.012;2023-08-06T14:31:51;4.05;;;1.02;;
33453;SDS011;39400;49.744;7.012;2023-08-06T14:34:16;3.33;;;1.10;;
33453;SDS011;39400;49.744;7.012;2023-08-06T14:36:42;2.85;;;1.05;;
33453;SDS011;39400;49.744;7.012;2023-08-06T14:39:07;7.50;;;1.60;;
33453;SDS011;39400;49.744;7.012;2023-08-06T14:41:32;2.90;;;1.05;;
33453;SDS011;39400;49.744;7.012;2023-08-06T14:43:58;1.67;;;1.00;;
33453;SDS011;39400;49.744;7.012;2023-08-06T14:46:23;4.10;;;1.20;;
33453;SDS011;39400;49.744;7.012;2023-08-06T14:48:48;5.93;;;1.15;;
33453;SDS011;39400;49.744;7.012;2023-08-06T14:51:14;3.55;;;1.02;;
33453;SDS011;39400;49.744;7.012;2023-08-06T14:53:39;5.97;;;2.08;;
33453;SDS011;39400;49.744;7.012;2023-08-06T14:56:05;5.40;;;2.35;;
33453;SDS011;39400;49.744;7.012;2023-08-06T14:58:30;7.78;;;4.65;;
33453;SDS011;39400;49.744;7.012;2023-08-06T15:00:56;4.80;;;1.95;;